sensor_id;sensor_type;location;lat;lon;timestamp;temperature;humidity
11908;DHT22;6014;47.690;9.130;2024-02-04T00:02:03;4.60;99.90
11908;DHT22;6014;47.690;9.130;2024-02-04T00:04:34;4.60;99.90
11908;DHT22;6014;47.690;9.130;2024-02-04T00:07:03;4.60;99.90
11908;DHT22;6014;47.690;9.130;2024-02-04T00:09:31;4.50;99.90
11908;DHT22;6014;47.690;9.130;2024-02-04T00:12:04;4.60;99.90
11908;DHT22;6014;47.690;9.130;2024-02-04T00:14:33;4.60;99.90
11908;DHT22;6014;47.690;9.130;2024-02-04T00:17:01;4.60;99.90
11908;DHT22;6014;47.690;9.130;2024-02-04T00:19:29;4.60;99.90
11908;DHT22;6014;47.690;9.130;2024-02-04T00:21:57;4.60;99.90
11908;DHT22;6014;47.690;9.130;2024-02-04T00:24:25;4.60;99.90
11908;DHT22;6014;47.690;9.130;2024-02-04T00:26:54;4.50;99.90
11908;DHT22;6014;47.690;9.130;2024-02-04T00:29:23;4.50;99.90
11908;DHT22;6014;47.690;9.130;2024-02-04T00:31:51;4.60;99.90
11908;DHT22;6014;47.690;9.130;2024-02-04T00:34:19;4.60;99.90
11908;DHT22;6014;47.690;9.130;2024-02-04T00:36:47;4.60;99.90
11908;DHT22;6014;47.690;9.130;2024-02-04T00:39:15;4.60;99.90
11908;DHT22;6014;47.690;9.130;2024-02-04T00:41:43;4.80;99.90
11908;DHT22;6014;47.690;9.130;2024-02-04T00:44:12;4.60;99.90
11908;DHT22;6014;47.690;9.130;2024-02-04T00:46:41;4.80;99.90
11908;DHT22;6014;47.690;9.130;2024-02-04T00:49:09;4.80;99.90
11908;DHT22;6014;47.690;9.130;2024-02-04T00:51:37;4.70;99.90
11908;DHT22;6014;47.690;9.130;2024-02-04T00:54:05;4.80;99.90
11908;DHT22;6014;47.690;9.130;2024-02-04T00:56:33;4.70;99.90
11908;DHT22;6014;47.690;9.130;2024-02-04T00:59:02;4.70;99.90
11908;DHT22;6014;47.690;9.130;2024-02-04T01:01:31;4.70;99.90
11908;DHT22;6014;47.690;9.130;2024-02-04T01:04:00;4.50;99.90
11908;DHT22;6014;47.690;9.130;2024-02-04T01:06:29;4.60;99.90
11908;DHT22;6014;47.690;9.130;2024-02-04T01:09:08;4.60;99.90
11908;DHT22;6014;47.690;9.130;2024-02-04T01:11:36;4.60;99.90
11908;DHT22;6014;47.690;9.130;2024-02-04T01:14:04;4.70;99.90
11908;DHT22;6014;47.690;9.130;2024-02-04T01:16:32;4.60;99.90
11908;DHT22;6014;47.690;9.130;2024-02-04T01:19:02;4.80;99.90
11908;DHT22;6014;47.690;9.130;2024-02-04T01:21:30;4.90;99.90
11908;DHT22;6014;47.690;9.130;2024-02-04T01:23:58;4.80;99.90
11908;DHT22;6014;47.690;9.130;2024-02-04T01:26:26;4.90;99.90
11908;DHT22;6014;47.690;9.130;2024-02-04T01:28:54;4.70;99.90
11908;DHT22;6014;47.690;9.130;2024-02-04T01:31:22;4.60;99.90
11908;DHT22;6014;47.690;9.130;2024-02-04T01:33:50;4.60;99.90
11908;DHT22;6014;47.690;9.130;2024-02-04T01:36:20;4.50;99.90
11908;DHT22;6014;47.690;9.130;2024-02-04T01:38:48;4.60;99.90
11908;DHT22;6014;47.690;9.130;2024-02-04T01:41:16;4.60;99.90
11908;DHT22;6014;47.690;9.130;2024-02-04T01:43:44;4.50;99.90
11908;DHT22;6014;47.690;9.130;2024-02-04T01:46:12;4.50;99.90
11908;DHT22;6014;47.690;9.130;2024-02-04T01:48:41;4.50;99.90
11908;DHT22;6014;47.690;9.130;2024-02-04T01:51:09;4.50;99.90
11908;DHT22;6014;47.690;9.130;2024-02-04T01:53:40;4.40;99.90
11908;DHT22;6014;47.690;9.130;2024-02-04T01:56:10;4.50;99.90
11908;DHT22;6014;47.690;9.130;2024-02-04T01:58:39;4.40;99.90
11908;DHT22;6014;47.690;9.130;2024-02-04T02:01:07;4.50;99.90
11908;DHT22;6014;47.690;9.130;2024-02-04T02:03:36;4.50;99.90
11908;DHT22;6014;47.690;9.130;2024-02-04T02:06:06;4.50;99.90
11908;DHT22;6014;47.690;9.130;2024-02-04T02:08:34;4.50;99.90
11908;DHT22;6014;47.690;9.130;2024-02-04T02:11:07;4.50;99.90
11908;DHT22;6014;47.690;9.130;2024-02-04T02:13:39;4.40;99.90
11908;DHT22;6014;47.690;9.130;2024-02-04T02:16:13;4.50;99.90
11908;DHT22;6014;47.690;9.130;2024-02-04T02:18:48;4.50;99.90
11908;DHT22;6014;47.690;9.130;2024-02-04T02:21:26;4.40;99.90
11908;DHT22;6014;47.690;9.130;2024-02-04T02:24:14;4.40;99.90
11908;DHT22;6014;47.690;9.130;2024-02-04T02:26:45;4.60;99.90
11908;DHT22;6014;47.690;9.130;2024-02-04T02:29:13;4.70;99.90
11908;DHT22;6014;47.690;9.130;2024-02-04T02:31:42;4.70;99.90
11908;DHT22;6014;47.690;9.130;2024-02-04T02:34:16;4.90;99.90
11908;DHT22;6014;47.690;9.130;2024-02-04T02:36:55;4.90;99.90
11908;DHT22;6014;47.690;9.130;2024-02-04T02:39:29;4.90;99.90
11908;DHT22;6014;47.690;9.130;2024-02-04T02:42:01;4.90;99.90
11908;DHT22;6014;47.690;9.130;2024-02-04T02:44:32;5.10;99.90
11908;DHT22;6014;47.690;9.130;2024-02-04T02:47:03;5.00;99.90
11908;DHT22;6014;47.690;9.130;2024-02-04T02:49:33;5.10;99.90
11908;DHT22;6014;47.690;9.130;2024-02-04T02:52:01;5.00;99.90
11908;DHT22;6014;47.690;9.130;2024-02-04T02:54:29;4.90;99.90
11908;DHT22;6014;47.690;9.130;2024-02-04T02:56:59;5.10;99.90
11908;DHT22;6014;47.690;9.130;2024-02-04T02:59:27;5.00;99.90
11908;DHT22;6014;47.690;9.130;2024-02-04T03:01:55;4.90;99.90
11908;DHT22;6014;47.690;9.130;2024-02-04T03:04:24;5.00;99.90
11908;DHT22;6014;47.690;9.130;2024-02-04T03:06:52;4.90;99.90
11908;DHT22;6014;47.690;9.130;2024-02-04T03:09:20;4.90;99.90
11908;DHT22;6014;47.690;9.130;2024-02-04T03:11:48;5.00;99.90
11908;DHT22;6014;47.690;9.130;2024-02-04T03:14:19;5.00;99.90
11908;DHT22;6014;47.690;9.130;2024-02-04T03:16:47;5.20;99.90
11908;DHT22;6014;47.690;9.130;2024-02-04T03:19:17;5.30;99.90
11908;DHT22;6014;47.690;9.130;2024-02-04T03:21:47;5.30;99.90
11908;DHT22;6014;47.690;9.130;2024-02-04T03:24:15;5.20;99.90
11908;DHT22;6014;47.690;9.130;2024-02-04T03:26:43;5.30;99.90
11908;DHT22;6014;47.690;9.130;2024-02-04T03:29:11;5.30;99.90
11908;DHT22;6014;47.690;9.130;2024-02-04T03:31:41;5.30;99.90
11908;DHT22;6014;47.690;9.130;2024-02-04T03:34:09;5.30;99.90
11908;DHT22;6014;47.690;9.130;2024-02-04T03:36:37;5.20;99.90
11908;DHT22;6014;47.690;9.130;2024-02-04T03:39:07;5.30;99.90
11908;DHT22;6014;47.690;9.130;2024-02-04T03:41:35;5.20;99.90
11908;DHT22;6014;47.690;9.130;2024-02-04T03:44:03;5.30;99.90
11908;DHT22;6014;47.690;9.130;2024-02-04T03:46:32;5.30;99.90
11908;DHT22;6014;47.690;9.130;2024-02-04T03:49:01;5.30;99.90
11908;DHT22;6014;47.690;9.130;2024-02-04T03:51:29;5.40;99.90
11908;DHT22;6014;47.690;9.130;2024-02-04T03:53:57;5.30;99.90
11908;DHT22;6014;47.690;9.130;2024-02-04T03:56:25;5.50;99.90
11908;DHT22;6014;47.690;9.130;2024-02-04T03:58:53;5.40;99.90
11908;DHT22;6014;47.690;9.130;2024-02-04T04:01:22;5.40;99.90
11908;DHT22;6014;47.690;9.130;2024-02-04T04:03:50;5.50;99.90
11908;DHT22;6014;47.690;9.130;2024-02-04T04:06:20;5.40;99.90
11908;DHT22;6014;47.690;9.130;2024-02-04T04:08:48;5.40;99.90
11908;DHT22;6014;47.690;9.130;2024-02-04T04:11:16;5.50;99.90
11908;DHT22;6014;47.690;9.130;2024-02-04T04:13:45;5.50;99.90
11908;DHT22;6014;47.690;9.130;2024-02-04T04:16:15;5.50;99.90
11908;DHT22;6014;47.690;9.130;2024-02-04T04:18:43;5.60;99.90
11908;DHT22;6014;47.690;9.130;2024-02-04T04:21:11;5.60;99.90
11908;DHT22;6014;47.690;9.130;2024-02-04T04:23:40;5.60;99.90
11908;DHT22;6014;47.690;9.130;2024-02-04T04:26:08;5.60;99.90
11908;DHT22;6014;47.690;9.130;2024-02-04T04:28:37;5.60;99.90
11908;DHT22;6014;47.690;9.130;2024-02-04T04:31:05;5.60;99.90
11908;DHT22;6014;47.690;9.130;2024-02-04T04:33:33;5.50;99.90
11908;DHT22;6014;47.690;9.130;2024-02-04T04:36:01;5.40;99.90
11908;DHT22;6014;47.690;9.130;2024-02-04T04:38:29;5.50;99.90
11908;DHT22;6014;47.690;9.130;2024-02-04T04:40:59;5.50;99.90
11908;DHT22;6014;47.690;9.130;2024-02-04T04:43:27;5.50;99.90
11908;DHT22;6014;47.690;9.130;2024-02-04T04:45:55;5.50;99.90
11908;DHT22;6014;47.690;9.130;2024-02-04T04:48:23;5.40;99.90
11908;DHT22;6014;47.690;9.130;2024-02-04T04:50:51;5.50;99.90
11908;DHT22;6014;47.690;9.130;2024-02-04T04:53:19;5.40;99.90
11908;DHT22;6014;47.690;9.130;2024-02-04T04:55:47;5.40;99.90
11908;DHT22;6014;47.690;9.130;2024-02-04T04:58:16;5.40;99.90
11908;DHT22;6014;47.690;9.130;2024-02-04T05:00:45;5.30;99.90
11908;DHT22;6014;47.690;9.130;2024-02-04T05:03:13;5.40;99.90
11908;DHT22;6014;47.690;9.130;2024-02-04T05:05:41;5.40;99.90
11908;DHT22;6014;47.690;9.130;2024-02-04T05:08:12;5.50;99.90
11908;DHT22;6014;47.690;9.130;2024-02-04T05:10:41;5.50;99.90
11908;DHT22;6014;47.690;9.130;2024-02-04T05:13:09;5.40;99.90
11908;DHT22;6014;47.690;9.130;2024-02-04T05:15:38;5.40;99.90
11908;DHT22;6014;47.690;9.130;2024-02-04T05:18:06;5.50;99.90
11908;DHT22;6014;47.690;9.130;2024-02-04T05:20:34;5.40;99.90
11908;DHT22;6014;47.690;9.130;2024-02-04T05:23:03;5.40;99.90
11908;DHT22;6014;47.690;9.130;2024-02-04T05:25:31;5.40;99.90
11908;DHT22;6014;47.690;9.130;2024-02-04T05:27:59;5.50;99.90
11908;DHT22;6014;47.690;9.130;2024-02-04T05:30:27;5.60;99.90
11908;DHT22;6014;47.690;9.130;2024-02-04T05:32:57;5.50;99.90
11908;DHT22;6014;47.690;9.130;2024-02-04T05:35:25;5.40;99.90
11908;DHT22;6014;47.690;9.130;2024-02-04T05:37:53;5.50;99.90
11908;DHT22;6014;47.690;9.130;2024-02-04T05:40:21;5.50;99.90
11908;DHT22;6014;47.690;9.130;2024-02-04T05:42:50;5.50;99.90
11908;DHT22;6014;47.690;9.130;2024-02-04T05:45:19;5.40;99.90
11908;DHT22;6014;47.690;9.130;2024-02-04T05:47:47;5.50;99.90
11908;DHT22;6014;47.690;9.130;2024-02-04T05:50:16;5.60;99.90
11908;DHT22;6014;47.690;9.130;2024-02-04T05:52:44;5.50;99.90
11908;DHT22;6014;47.690;9.130;2024-02-04T05:55:12;5.50;99.90
11908;DHT22;6014;47.690;9.130;2024-02-04T05:57:40;5.50;99.90
11908;DHT22;6014;47.690;9.130;2024-02-04T06:00:09;5.50;99.90
11908;DHT22;6014;47.690;9.130;2024-02-04T06:02:38;5.50;99.90
11908;DHT22;6014;47.690;9.130;2024-02-04T06:05:07;5.50;99.90
11908;DHT22;6014;47.690;9.130;2024-02-04T06:07:48;5.40;99.90
11908;DHT22;6014;47.690;9.130;2024-02-04T06:10:17;5.40;99.90
11908;DHT22;6014;47.690;9.130;2024-02-04T06:12:45;5.50;99.90
11908;DHT22;6014;47.690;9.130;2024-02-04T06:15:14;5.50;99.90
11908;DHT22;6014;47.690;9.130;2024-02-04T06:17:43;5.50;99.90
11908;DHT22;6014;47.690;9.130;2024-02-04T06:20:11;5.60;99.90
11908;DHT22;6014;47.690;9.130;2024-02-04T06:22:39;5.60;99.90
11908;DHT22;6014;47.690;9.130;2024-02-04T06:25:09;5.60;99.90
11908;DHT22;6014;47.690;9.130;2024-02-04T06:27:37;5.60;99.90
11908;DHT22;6014;47.690;9.130;2024-02-04T06:30:06;5.50;99.90
11908;DHT22;6014;47.690;9.130;2024-02-04T06:32:36;5.60;99.90
11908;DHT22;6014;47.690;9.130;2024-02-04T06:35:06;5.50;99.90
11908;DHT22;6014;47.690;9.130;2024-02-04T06:37:34;5.60;99.90
11908;DHT22;6014;47.690;9.130;2024-02-04T06:40:03;5.60;99.90
11908;DHT22;6014;47.690;9.130;2024-02-04T06:42:32;5.60;99.90
11908;DHT22;6014;47.690;9.130;2024-02-04T06:45:01;5.60;99.90
11908;DHT22;6014;47.690;9.130;2024-02-04T06:47:29;5.70;99.90
11908;DHT22;6014;47.690;9.130;2024-02-04T06:49:57;5.60;99.90
11908;DHT22;6014;47.690;9.130;2024-02-04T06:52:25;5.60;99.90
11908;DHT22;6014;47.690;9.130;2024-02-04T06:54:53;5.60;99.90
11908;DHT22;6014;47.690;9.130;2024-02-04T06:57:21;5.60;99.90
11908;DHT22;6014;47.690;9.130;2024-02-04T06:59:51;5.60;99.90
11908;DHT22;6014;47.690;9.130;2024-02-04T07:02:19;5.60;99.90
11908;DHT22;6014;47.690;9.130;2024-02-04T07:04:47;5.70;99.90
11908;DHT22;6014;47.690;9.130;2024-02-04T07:07:20;5.50;99.90
11908;DHT22;6014;47.690;9.130;2024-02-04T07:09:48;5.60;99.90
11908;DHT22;6014;47.690;9.130;2024-02-04T07:12:16;5.70;99.90
11908;DHT22;6014;47.690;9.130;2024-02-04T07:14:44;5.70;99.90
11908;DHT22;6014;47.690;9.130;2024-02-04T07:17:14;5.70;99.90
11908;DHT22;6014;47.690;9.130;2024-02-04T07:19:42;5.70;99.90
11908;DHT22;6014;47.690;9.130;2024-02-04T07:22:10;5.70;99.90
11908;DHT22;6014;47.690;9.130;2024-02-04T07:24:38;5.70;99.90
11908;DHT22;6014;47.690;9.130;2024-02-04T07:27:06;5.70;99.90
11908;DHT22;6014;47.690;9.130;2024-02-04T07:29:34;5.70;99.90
11908;DHT22;6014;47.690;9.130;2024-02-04T07:32:03;5.70;99.90
11908;DHT22;6014;47.690;9.130;2024-02-04T07:34:32;5.80;99.90
11908;DHT22;6014;47.690;9.130;2024-02-04T07:37:01;5.80;99.90
11908;DHT22;6014;47.690;9.130;2024-02-04T07:39:29;5.80;99.90
11908;DHT22;6014;47.690;9.130;2024-02-04T07:41:58;5.80;99.90
11908;DHT22;6014;47.690;9.130;2024-02-04T07:44:28;5.80;99.90
11908;DHT22;6014;47.690;9.130;2024-02-04T07:46:56;5.80;99.90
11908;DHT22;6014;47.690;9.130;2024-02-04T07:49:24;5.80;99.90
11908;DHT22;6014;47.690;9.130;2024-02-04T07:51:54;5.90;99.90
11908;DHT22;6014;47.690;9.130;2024-02-04T07:54:22;6.00;99.90
11908;DHT22;6014;47.690;9.130;2024-02-04T07:56:50;6.00;99.90
11908;DHT22;6014;47.690;9.130;2024-02-04T07:59:18;6.00;99.90
11908;DHT22;6014;47.690;9.130;2024-02-04T08:01:47;6.00;99.90
11908;DHT22;6014;47.690;9.130;2024-02-04T08:04:33;6.10;99.90
11908;DHT22;6014;47.690;9.130;2024-02-04T08:07:04;6.10;99.90
11908;DHT22;6014;47.690;9.130;2024-02-04T08:09:33;6.10;99.90
11908;DHT22;6014;47.690;9.130;2024-02-04T08:12:01;6.10;99.90
11908;DHT22;6014;47.690;9.130;2024-02-04T08:14:30;6.10;99.90
11908;DHT22;6014;47.690;9.130;2024-02-04T08:16:59;6.10;99.90
11908;DHT22;6014;47.690;9.130;2024-02-04T08:19:27;6.20;99.90
11908;DHT22;6014;47.690;9.130;2024-02-04T08:21:56;6.30;99.90
11908;DHT22;6014;47.690;9.130;2024-02-04T08:24:26;6.20;99.90
11908;DHT22;6014;47.690;9.130;2024-02-04T08:27:04;6.20;99.90
11908;DHT22;6014;47.690;9.130;2024-02-04T08:29:32;6.40;99.90
11908;DHT22;6014;47.690;9.130;2024-02-04T08:32:02;6.40;99.90
11908;DHT22;6014;47.690;9.130;2024-02-04T08:34:30;6.40;99.90
11908;DHT22;6014;47.690;9.130;2024-02-04T08:36:58;6.50;99.90
11908;DHT22;6014;47.690;9.130;2024-02-04T08:39:28;6.50;99.90
11908;DHT22;6014;47.690;9.130;2024-02-04T08:41:57;6.40;99.80
11908;DHT22;6014;47.690;9.130;2024-02-04T08:44:25;6.50;99.80
11908;DHT22;6014;47.690;9.130;2024-02-04T08:47:05;6.50;99.40
11908;DHT22;6014;47.690;9.130;2024-02-04T08:49:37;6.50;99.20
11908;DHT22;6014;47.690;9.130;2024-02-04T08:52:05;6.60;98.20
11908;DHT22;6014;47.690;9.130;2024-02-04T08:54:35;6.60;98.10
11908;DHT22;6014;47.690;9.130;2024-02-04T08:57:03;6.60;98.10
11908;DHT22;6014;47.690;9.130;2024-02-04T08:59:31;6.70;98.50
11908;DHT22;6014;47.690;9.130;2024-02-04T09:01:59;6.80;97.30
11908;DHT22;6014;47.690;9.130;2024-02-04T09:04:28;6.90;96.60
11908;DHT22;6014;47.690;9.130;2024-02-04T09:06:56;6.90;96.30
11908;DHT22;6014;47.690;9.130;2024-02-04T09:09:24;6.80;96.10
11908;DHT22;6014;47.690;9.130;2024-02-04T09:11:53;6.90;96.00
11908;DHT22;6014;47.690;9.130;2024-02-04T09:14:21;7.00;95.80
11908;DHT22;6014;47.690;9.130;2024-02-04T09:16:50;6.90;95.40
11908;DHT22;6014;47.690;9.130;2024-02-04T09:19:18;6.80;95.30
11908;DHT22;6014;47.690;9.130;2024-02-04T09:21:46;6.90;95.30
11908;DHT22;6014;47.690;9.130;2024-02-04T09:24:14;7.00;95.40
11908;DHT22;6014;47.690;9.130;2024-02-04T09:26:43;7.00;94.80
11908;DHT22;6014;47.690;9.130;2024-02-04T09:29:12;7.00;94.50
11908;DHT22;6014;47.690;9.130;2024-02-04T09:31:40;6.90;94.30
11908;DHT22;6014;47.690;9.130;2024-02-04T09:34:09;6.80;94.30
11908;DHT22;6014;47.690;9.130;2024-02-04T09:36:37;6.80;94.80
11908;DHT22;6014;47.690;9.130;2024-02-04T09:39:12;6.90;94.60
11908;DHT22;6014;47.690;9.130;2024-02-04T09:41:40;6.90;94.10
11908;DHT22;6014;47.690;9.130;2024-02-04T09:44:08;7.20;93.70
11908;DHT22;6014;47.690;9.130;2024-02-04T09:46:38;7.30;93.10
11908;DHT22;6014;47.690;9.130;2024-02-04T09:49:08;7.40;92.50
11908;DHT22;6014;47.690;9.130;2024-02-04T09:51:37;7.50;91.70
11908;DHT22;6014;47.690;9.130;2024-02-04T09:54:05;7.60;91.60
11908;DHT22;6014;47.690;9.130;2024-02-04T09:56:35;7.70;91.00
11908;DHT22;6014;47.690;9.130;2024-02-04T09:59:05;7.60;90.70
11908;DHT22;6014;47.690;9.130;2024-02-04T10:01:33;7.70;90.30
11908;DHT22;6014;47.690;9.130;2024-02-04T10:04:04;7.70;90.60
11908;DHT22;6014;47.690;9.130;2024-02-04T10:06:32;7.70;90.60
11908;DHT22;6014;47.690;9.130;2024-02-04T10:09:01;7.70;90.20
11908;DHT22;6014;47.690;9.130;2024-02-04T10:11:29;7.60;90.40
11908;DHT22;6014;47.690;9.130;2024-02-04T10:13:57;7.80;90.00
11908;DHT22;6014;47.690;9.130;2024-02-04T10:16:26;7.80;90.20
11908;DHT22;6014;47.690;9.130;2024-02-04T10:18:54;7.90;88.30
11908;DHT22;6014;47.690;9.130;2024-02-04T10:21:24;8.00;88.30
11908;DHT22;6014;47.690;9.130;2024-02-04T10:23:53;8.00;87.50
11908;DHT22;6014;47.690;9.130;2024-02-04T10:26:22;8.10;86.90
11908;DHT22;6014;47.690;9.130;2024-02-04T10:28:50;8.20;87.20
11908;DHT22;6014;47.690;9.130;2024-02-04T10:31:19;8.40;86.10
11908;DHT22;6014;47.690;9.130;2024-02-04T10:33:47;8.70;84.80
11908;DHT22;6014;47.690;9.130;2024-02-04T10:36:17;8.80;82.80
11908;DHT22;6014;47.690;9.130;2024-02-04T10:38:47;8.70;83.00
11908;DHT22;6014;47.690;9.130;2024-02-04T10:41:16;8.60;83.50
11908;DHT22;6014;47.690;9.130;2024-02-04T10:43:45;9.00;81.90
11908;DHT22;6014;47.690;9.130;2024-02-04T10:46:15;9.20;79.80
11908;DHT22;6014;47.690;9.130;2024-02-04T10:48:51;9.10;79.70
11908;DHT22;6014;47.690;9.130;2024-02-04T10:51:23;9.20;78.00
11908;DHT22;6014;47.690;9.130;2024-02-04T10:53:55;9.40;77.30
11908;DHT22;6014;47.690;9.130;2024-02-04T10:56:29;9.40;76.00
11908;DHT22;6014;47.690;9.130;2024-02-04T10:58:58;9.40;75.10
11908;DHT22;6014;47.690;9.130;2024-02-04T11:01:30;9.10;73.90
11908;DHT22;6014;47.690;9.130;2024-02-04T11:03:58;9.30;73.80
11908;DHT22;6014;47.690;9.130;2024-02-04T11:06:28;9.20;73.70
11908;DHT22;6014;47.690;9.130;2024-02-04T11:08:59;9.70;72.30
11908;DHT22;6014;47.690;9.130;2024-02-04T11:11:28;9.90;72.40
11908;DHT22;6014;47.690;9.130;2024-02-04T11:14:00;9.70;71.30
11908;DHT22;6014;47.690;9.130;2024-02-04T11:16:52;9.70;70.80
11908;DHT22;6014;47.690;9.130;2024-02-04T11:19:35;9.70;70.80
11908;DHT22;6014;47.690;9.130;2024-02-04T11:22:20;9.90;71.90
11908;DHT22;6014;47.690;9.130;2024-02-04T11:25:09;9.80;69.60
11908;DHT22;6014;47.690;9.130;2024-02-04T11:27:42;9.80;70.90
11908;DHT22;6014;47.690;9.130;2024-02-04T11:30:11;9.80;69.50
11908;DHT22;6014;47.690;9.130;2024-02-04T11:32:42;9.90;69.30
11908;DHT22;6014;47.690;9.130;2024-02-04T11:35:10;9.90;68.60
11908;DHT22;6014;47.690;9.130;2024-02-04T11:37:39;10.10;68.10
11908;DHT22;6014;47.690;9.130;2024-02-04T11:40:14;10.40;67.00
11908;DHT22;6014;47.690;9.130;2024-02-04T11:42:44;10.30;65.60
11908;DHT22;6014;47.690;9.130;2024-02-04T11:45:13;10.40;64.60
11908;DHT22;6014;47.690;9.130;2024-02-04T11:47:41;10.30;65.90
11908;DHT22;6014;47.690;9.130;2024-02-04T11:50:10;10.40;63.90
11908;DHT22;6014;47.690;9.130;2024-02-04T11:52:39;10.40;63.80
11908;DHT22;6014;47.690;9.130;2024-02-04T11:55:14;10.40;63.90
11908;DHT22;6014;47.690;9.130;2024-02-04T11:57:43;10.80;63.80
11908;DHT22;6014;47.690;9.130;2024-02-04T12:00:12;10.40;62.70
11908;DHT22;6014;47.690;9.130;2024-02-04T12:02:41;10.50;62.70
11908;DHT22;6014;47.690;9.130;2024-02-04T12:05:09;10.90;61.50
11908;DHT22;6014;47.690;9.130;2024-02-04T12:07:38;11.00;60.80
11908;DHT22;6014;47.690;9.130;2024-02-04T12:10:10;11.00;59.80
11908;DHT22;6014;47.690;9.130;2024-02-04T12:12:40;10.90;59.60
11908;DHT22;6014;47.690;9.130;2024-02-04T12:15:09;11.10;58.90
11908;DHT22;6014;47.690;9.130;2024-02-04T12:17:38;11.10;58.70
11908;DHT22;6014;47.690;9.130;2024-02-04T12:20:07;11.00;58.80
11908;DHT22;6014;47.690;9.130;2024-02-04T12:22:35;10.90;59.00
11908;DHT22;6014;47.690;9.130;2024-02-04T12:25:04;10.70;59.80
11908;DHT22;6014;47.690;9.130;2024-02-04T12:27:33;10.70;58.70
11908;DHT22;6014;47.690;9.130;2024-02-04T12:30:04;10.80;58.60
11908;DHT22;6014;47.690;9.130;2024-02-04T12:32:33;10.80;58.60
11908;DHT22;6014;47.690;9.130;2024-02-04T12:35:05;11.10;58.30
11908;DHT22;6014;47.690;9.130;2024-02-04T12:37:34;11.10;57.70
11908;DHT22;6014;47.690;9.130;2024-02-04T12:40:02;11.20;57.30
11908;DHT22;6014;47.690;9.130;2024-02-04T12:42:31;11.30;56.50
11908;DHT22;6014;47.690;9.130;2024-02-04T12:45:00;11.10;57.30
11908;DHT22;6014;47.690;9.130;2024-02-04T12:47:29;11.10;57.50
11908;DHT22;6014;47.690;9.130;2024-02-04T12:49:58;11.00;57.30
11908;DHT22;6014;47.690;9.130;2024-02-04T12:52:27;11.20;57.90
11908;DHT22;6014;47.690;9.130;2024-02-04T12:54:57;11.10;57.90
11908;DHT22;6014;47.690;9.130;2024-02-04T12:57:25;11.00;58.10
11908;DHT22;6014;47.690;9.130;2024-02-04T13:00:04;11.10;58.10
11908;DHT22;6014;47.690;9.130;2024-02-04T13:02:34;11.30;56.30
11908;DHT22;6014;47.690;9.130;2024-02-04T13:05:03;11.50;56.40
11908;DHT22;6014;47.690;9.130;2024-02-04T13:07:31;11.50;55.70
11908;DHT22;6014;47.690;9.130;2024-02-04T13:09:59;11.80;55.20
11908;DHT22;6014;47.690;9.130;2024-02-04T13:12:28;11.60;55.80
11908;DHT22;6014;47.690;9.130;2024-02-04T13:14:59;11.40;55.30
11908;DHT22;6014;47.690;9.130;2024-02-04T13:17:27;11.30;55.50
11908;DHT22;6014;47.690;9.130;2024-02-04T13:19:57;11.50;55.30
11908;DHT22;6014;47.690;9.130;2024-02-04T13:22:26;11.60;55.40
11908;DHT22;6014;47.690;9.130;2024-02-04T13:24:54;11.40;55.30
11908;DHT22;6014;47.690;9.130;2024-02-04T13:27:22;11.40;55.50
11908;DHT22;6014;47.690;9.130;2024-02-04T13:29:50;11.30;55.70
11908;DHT22;6014;47.690;9.130;2024-02-04T13:32:18;11.30;55.60
11908;DHT22;6014;47.690;9.130;2024-02-04T13:34:46;11.30;55.40
11908;DHT22;6014;47.690;9.130;2024-02-04T13:37:21;11.10;55.50
11908;DHT22;6014;47.690;9.130;2024-02-04T13:39:49;11.00;56.20
11908;DHT22;6014;47.690;9.130;2024-02-04T13:42:17;11.00;56.50
11908;DHT22;6014;47.690;9.130;2024-02-04T13:44:45;11.00;56.10
11908;DHT22;6014;47.690;9.130;2024-02-04T13:47:14;11.00;56.20
11908;DHT22;6014;47.690;9.130;2024-02-04T13:49:42;10.80;56.40
11908;DHT22;6014;47.690;9.130;2024-02-04T13:52:10;10.80;57.00
11908;DHT22;6014;47.690;9.130;2024-02-04T13:54:39;10.90;56.40
11908;DHT22;6014;47.690;9.130;2024-02-04T13:57:07;11.10;56.50
11908;DHT22;6014;47.690;9.130;2024-02-04T13:59:35;11.00;56.70
11908;DHT22;6014;47.690;9.130;2024-02-04T14:02:04;10.90;56.50
11908;DHT22;6014;47.690;9.130;2024-02-04T14:04:32;11.10;56.80
11908;DHT22;6014;47.690;9.130;2024-02-04T14:07:00;11.10;56.40
11908;DHT22;6014;47.690;9.130;2024-02-04T14:09:28;11.10;56.70
11908;DHT22;6014;47.690;9.130;2024-02-04T14:11:58;11.20;55.90
11908;DHT22;6014;47.690;9.130;2024-02-04T14:14:26;11.00;56.20
11908;DHT22;6014;47.690;9.130;2024-02-04T14:16:54;11.20;56.20
11908;DHT22;6014;47.690;9.130;2024-02-04T14:19:22;11.20;55.90
11908;DHT22;6014;47.690;9.130;2024-02-04T14:21:50;11.10;55.80
11908;DHT22;6014;47.690;9.130;2024-02-04T14:24:18;11.10;55.90
11908;DHT22;6014;47.690;9.130;2024-02-04T14:26:46;11.20;55.80
11908;DHT22;6014;47.690;9.130;2024-02-04T14:29:16;11.10;56.10
11908;DHT22;6014;47.690;9.130;2024-02-04T14:31:44;11.00;56.10
11908;DHT22;6014;47.690;9.130;2024-02-04T14:34:12;10.80;56.50
11908;DHT22;6014;47.690;9.130;2024-02-04T14:36:41;10.80;56.40
11908;DHT22;6014;47.690;9.130;2024-02-04T14:39:09;10.70;57.10
11908;DHT22;6014;47.690;9.130;2024-02-04T14:41:37;10.80;57.00
11908;DHT22;6014;47.690;9.130;2024-02-04T14:44:05;10.70;57.00
11908;DHT22;6014;47.690;9.130;2024-02-04T14:46:37;10.80;56.70
11908;DHT22;6014;47.690;9.130;2024-02-04T14:49:06;10.70;56.90
11908;DHT22;6014;47.690;9.130;2024-02-04T14:51:38;10.60;57.00
11908;DHT22;6014;47.690;9.130;2024-02-04T14:54:06;10.60;57.00
11908;DHT22;6014;47.690;9.130;2024-02-04T14:56:37;10.60;57.20
11908;DHT22;6014;47.690;9.130;2024-02-04T14:59:09;10.60;57.20
11908;DHT22;6014;47.690;9.130;2024-02-04T15:01:50;10.60;57.20
11908;DHT22;6014;47.690;9.130;2024-02-04T15:04:18;10.60;57.50
11908;DHT22;6014;47.690;9.130;2024-02-04T15:06:47;10.60;56.80
11908;DHT22;6014;47.690;9.130;2024-02-04T15:09:15;10.60;57.00
11908;DHT22;6014;47.690;9.130;2024-02-04T15:11:43;10.60;57.20
11908;DHT22;6014;47.690;9.130;2024-02-04T15:14:12;10.50;56.80
11908;DHT22;6014;47.690;9.130;2024-02-04T15:16:40;10.50;56.70
11908;DHT22;6014;47.690;9.130;2024-02-04T15:19:11;10.40;57.20
11908;DHT22;6014;47.690;9.130;2024-02-04T15:21:39;10.40;57.20
11908;DHT22;6014;47.690;9.130;2024-02-04T15:24:08;10.30;57.50
11908;DHT22;6014;47.690;9.130;2024-02-04T15:26:37;10.30;57.70
11908;DHT22;6014;47.690;9.130;2024-02-04T15:29:07;10.30;57.70
11908;DHT22;6014;47.690;9.130;2024-02-04T15:31:37;10.20;57.50
11908;DHT22;6014;47.690;9.130;2024-02-04T15:34:05;10.20;58.10
11908;DHT22;6014;47.690;9.130;2024-02-04T15:36:36;10.20;58.20
11908;DHT22;6014;47.690;9.130;2024-02-04T15:39:04;10.10;58.10
11908;DHT22;6014;47.690;9.130;2024-02-04T15:41:32;10.10;58.40
11908;DHT22;6014;47.690;9.130;2024-02-04T15:44:00;10.00;58.70
11908;DHT22;6014;47.690;9.130;2024-02-04T15:46:30;10.00;58.70
11908;DHT22;6014;47.690;9.130;2024-02-04T15:48:58;10.00;58.50
11908;DHT22;6014;47.690;9.130;2024-02-04T15:51:32;10.00;58.60
11908;DHT22;6014;47.690;9.130;2024-02-04T15:54:02;10.00;58.40
11908;DHT22;6014;47.690;9.130;2024-02-04T15:56:33;9.90;59.70
11908;DHT22;6014;47.690;9.130;2024-02-04T15:59:06;9.90;59.90
11908;DHT22;6014;47.690;9.130;2024-02-04T16:01:37;9.90;60.30
11908;DHT22;6014;47.690;9.130;2024-02-04T16:04:07;9.80;60.50
11908;DHT22;6014;47.690;9.130;2024-02-04T16:06:37;9.80;60.70
11908;DHT22;6014;47.690;9.130;2024-02-04T16:09:08;9.70;61.20
11908;DHT22;6014;47.690;9.130;2024-02-04T16:11:42;9.70;62.00